AirNav   Everest Fuels
 
 1387 users online  

28TA Duval County Ranch Company Airport
Freer, Texas, USA

GOING TO FREER?


FAA INFORMATION EFFECTIVE 25 MARCH 2021

Location

FAA Identifier: 28TA
Lat/Long: 27-50-01.0730N 098-43-01.0630W
27-50.017883N 098-43.017717W
27.8336314,-98.7169619
(estimated)
Elevation: 665 ft. / 203 m (estimated)
Variation: 07E (1985)
From city: 6 miles SW of FREER, TX
Time zone: UTC -5 (UTC -6 during Standard Time)
Zip code: 78384

Airport Operations

Airport use: Private use. Permission required prior to landing
Activation date: 04/1982
Control tower: no
ARTCC: HOUSTON CENTER
FSS: SAN ANGELO FLIGHT SERVICE STATION
Attendance: CONTINUOUS
Wind indicator: yes
Segmented circle: no
Lights: SS-SR

Airport Communications

UNICOM: 122.8

Nearby radio navigation aids

VOR radial/distance  VOR name  Freq  Var
ALIr273/(37.4)ALICE VOR114.5006E

Airport Services

Runway Information

Runway 14/32

Dimensions: 10280 x 34 ft. / 3133 x 10 m
Surface: asphalt
Runway edge lights: non-standard
STOP LGTS & FLASHING RED LGTS ON EACH END.
RUNWAY 14  RUNWAY 32
Traffic pattern: leftleft
Obstructions: 50 ft. pline, 1000 ft. from runwaynone

Airport Ownership and Management from official FAA records

Ownership: Privately-owned
Owner: CLINTON MANGES
BOX 570
FREER, TX 78357
Phone 512-394-6341
Manager: JACK DAMRON
BOX 570
FREER, TX 78357
Phone 512-394-7386

Airport Operational Statistics

Aircraft based on the field: 7
Multi engine airplanes: 3
Helicopters: 4
    

Additional Remarks

A43-14 VASI.
RWY 14/32 ALSO SERVES AS RANCH ROAD.
FOR CD CTC HOUSTON ARTCC AT 281-230-5622.

Instrument Procedures

There are no published instrument procedures at 28TA.

Some nearby airports with instrument procedures:

KHBV - Jim Hogg County Airport (29 nm S)
KNOG - Orange Grove Naval Auxiliary Field (36 nm E)
KALI - Alice International Airport (37 nm E)
KIKG - Kleberg County Airport (40 nm SE)
KLRD - Laredo International Airport (43 nm SW)
 
Loc | Ops | Rwys | IFR | FBO | Links
Com | Nav | Svcs | Stats | Notes
Area around 28TA (Duval County Ranch Company Airport)
 
Road maps at: MapQuest Bing Google
 
Aerial photo
WARNING: Photo may not be current or correct
Aerial photo of 28TA (Duval County Ranch Company Airport)
Do you have a better or more recent aerial photo of Duval County Ranch Company Airport that you would like to share? If so, please send us your photo.

 
Sectional chart

 
Airport distance calculator
Flying to Duval County Ranch Company Airport? Find the distance to fly.

From to 28TA

Sunrise and sunset
Times for 12-Apr-2021
 Local
(UTC-5)
 Zulu
(UTC)
Morning civil twilight06:5011:50
Sunrise07:1412:14
Sunset19:5700:57
Evening civil twilight20:2101:21

Current date and time
Zulu (UTC)  12-Apr-2021 21:38:26
Local (UTC-5)  12-Apr-2021 16:38:26
 
METAR
KHBV 
29nm S 
122115Z AUTO 16007KT 10SM CLR 34/06 A2968 RMK AO2 T03390055
KNOG 
36nm E 
122056Z AUTO 12017G24KT 10SM SCT040 31/19 A2971 RMK AO2 SLP040 T03110189 56016 $
KALI 
38nm E 
122053Z AUTO 12020G24KT 10SM FEW041 32/19 A2969 RMK AO2 SLP052 T03220189 56018
KIKG 
40nm SE 
122115Z AUTO 10014G19KT 10SM SCT043 33/21 A2970 RMK AO2 T03310208
KLRD 
43nm SW 
122056Z 13009G14KT 10SM CLR 34/19 A2967 RMK AO2 SLP042 T03440189 58029
KCOT 
45nm NW 
122053Z AUTO 16012G20KT 10SM CLR 36/16 A2967 RMK AO2 SLP040 T03560156 56028
KBKS 
49nm SE 
122115Z AUTO 12010G16KT 10SM CLR 31/19 A2968 RMK AO2 T03050191
TAF
KALI 
38nm E 
121729Z 1218/1318 14011G16KT P6SM SCT030 BKN035 BKN250 FM122100 12013G20KT P6SM SCT020 BKN050 BKN250 FM130300 09007KT 4SM BR OVC007 FM131500 12010KT P6SM OVC015
KLRD 
43nm SW 
121729Z 1218/1318 14011G15KT P6SM SCT060 BKN250 FM122200 11012KT P6SM SCT250 FM130500 07011KT P6SM OVC015 FM131600 12007KT P6SM OVC025
KCOT 
45nm NW 
121729Z 1218/1318 14011G16KT P6SM BKN250 FM122200 12012KT P6SM SCT250 FM130600 09011KT P6SM BKN015 FM131700 07009KT P6SM BKN025
NOTAMs
Click for the latest NOTAMs
NOTAMs are issued by the DoD/FAA and will open in a separate window not controlled by AirNav.

 

 
 

Would you like to see your business listed on this page?

 If your business provides an interesting product or service to pilots, flight crews, aircraft, or users of the Duval County Ranch Company Airport, you should consider listing it here.  To start the listing process, click on the button below
 
Add a business
 

Other Pages about Duval County Ranch Company Airport

Update a link
 
Copyright © AirNav, LLC. All rights reserved. Privacy Policy  Contact